sensor_id;sensor_type;location;lat;lon;timestamp;pressure;altitude;pressure_sealevel;temperature;humidity
23164;BME280;31429;42.674;23.350;2023-05-22T00:00:11;94525.81;;;13.68;100.00
23164;BME280;31429;42.674;23.350;2023-05-22T00:01:14;94532.16;;;13.78;100.00
23164;BME280;31429;42.674;23.350;2023-05-22T00:02:18;94530.06;;;13.85;100.00
23164;BME280;31429;42.674;23.350;2023-05-22T00:03:22;94531.06;;;13.82;100.00
23164;BME280;31429;42.674;23.350;2023-05-22T00:04:26;94529.81;;;13.90;100.00
23164;BME280;31429;42.674;23.350;2023-05-22T00:05:29;94535.63;;;13.93;100.00
23164;BME280;31429;42.674;23.350;2023-05-22T00:06:30;94530.34;;;13.96;100.00
23164;BME280;31429;42.674;23.350;2023-05-22T00:07:33;94537.03;;;13.99;100.00
23164;BME280;31429;42.674;23.350;2023-05-22T00:08:33;94532.38;;;14.05;100.00
23164;BME280;31429;42.674;23.350;2023-05-22T00:09:36;94525.84;;;14.15;100.00
23164;BME280;31429;42.674;23.350;2023-05-22T00:10:36;94527.25;;;14.21;100.00
23164;BME280;31429;42.674;23.350;2023-05-22T00:11:37;94523.94;;;14.19;100.00
23164;BME280;31429;42.674;23.350;2023-05-22T00:12:38;94526.31;;;14.22;100.00
23164;BME280;31429;42.674;23.350;2023-05-22T00:13:39;94528.69;;;14.25;100.00
23164;BME280;31429;42.674;23.350;2023-05-22T00:14:40;94528.53;;;14.28;100.00
23164;BME280;31429;42.674;23.350;2023-05-22T00:15:40;94528.34;;;14.32;100.00
23164;BME280;31429;42.674;23.350;2023-05-22T00:16:41;94527.31;;;14.35;100.00
23164;BME280;31429;42.674;23.350;2023-05-22T00:17:42;94529.31;;;14.30;100.00
23164;BME280;31429;42.674;23.350;2023-05-22T00:18:43;94529.63;;;14.24;100.00
23164;BME280;31429;42.674;23.350;2023-05-22T00:19:44;94530.19;;;14.29;100.00
23164;BME280;31429;42.674;23.350;2023-05-22T00:20:45;94529.47;;;14.27;100.00
23164;BME280;31429;42.674;23.350;2023-05-22T00:21:46;94534.63;;;14.27;100.00
23164;BME280;31429;42.674;23.350;2023-05-22T00:22:46;94527.06;;;14.24;100.00
23164;BME280;31429;42.674;23.350;2023-05-22T00:23:48;94534.84;;;14.22;100.00
23164;BME280;31429;42.674;23.350;2023-05-22T00:24:50;94527.81;;;14.26;100.00
23164;BME280;31429;42.674;23.350;2023-05-22T00:25:50;94529.47;;;14.27;100.00
23164;BME280;31429;42.674;23.350;2023-05-22T00:26:51;94533.94;;;14.23;100.00
23164;BME280;31429;42.674;23.350;2023-05-22T00:27:52;94524.91;;;14.16;100.00
23164;BME280;31429;42.674;23.350;2023-05-22T00:28:52;94528.13;;;14.20;100.00
23164;BME280;31429;42.674;23.350;2023-05-22T00:29:53;94535.94;;;14.18;100.00
23164;BME280;31429;42.674;23.350;2023-05-22T00:30:53;94527.56;;;14.15;100.00
23164;BME280;31429;42.674;23.350;2023-05-22T00:31:54;94540.31;;;14.16;100.00
23164;BME280;31429;42.674;23.350;2023-05-22T00:32:55;94534.22;;;14.19;100.00
23164;BME280;31429;42.674;23.350;2023-05-22T00:33:57;94530.72;;;14.20;100.00
23164;BME280;31429;42.674;23.350;2023-05-22T00:34:58;94539.16;;;14.22;100.00
23164;BME280;31429;42.674;23.350;2023-05-22T00:35:58;94532.38;;;14.21;100.00
23164;BME280;31429;42.674;23.350;2023-05-22T00:36:59;94532.44;;;14.19;100.00
23164;BME280;31429;42.674;23.350;2023-05-22T00:38:02;94534.63;;;14.11;100.00
23164;BME280;31429;42.674;23.350;2023-05-22T00:39:03;94535.63;;;14.09;100.00
23164;BME280;31429;42.674;23.350;2023-05-22T00:40:07;94539.84;;;14.10;100.00
23164;BME280;31429;42.674;23.350;2023-05-22T00:41:08;94542.31;;;14.11;100.00
23164;BME280;31429;42.674;23.350;2023-05-22T00:42:08;94534.72;;;14.10;100.00
23164;BME280;31429;42.674;23.350;2023-05-22T00:43:09;94538.28;;;14.07;100.00
23164;BME280;31429;42.674;23.350;2023-05-22T00:44:10;94540.03;;;14.07;100.00
23164;BME280;31429;42.674;23.350;2023-05-22T00:45:13;94537.19;;;14.11;100.00
23164;BME280;31429;42.674;23.350;2023-05-22T00:46:14;94533.88;;;14.09;100.00
23164;BME280;31429;42.674;23.350;2023-05-22T00:47:15;94532.03;;;14.11;100.00
23164;BME280;31429;42.674;23.350;2023-05-22T00:48:15;94533.94;;;14.08;100.00
23164;BME280;31429;42.674;23.350;2023-05-22T00:49:16;94531.97;;;14.13;100.00
23164;BME280;31429;42.674;23.350;2023-05-22T00:50:18;94537.69;;;14.18;100.00
23164;BME280;31429;42.674;23.350;2023-05-22T00:51:19;94532.78;;;14.13;100.00
23164;BME280;31429;42.674;23.350;2023-05-22T00:52:20;94537.50;;;14.05;100.00
23164;BME280;31429;42.674;23.350;2023-05-22T00:53:23;94536.63;;;14.06;100.00
23164;BME280;31429;42.674;23.350;2023-05-22T00:54:24;94533.94;;;14.08;100.00
23164;BME280;31429;42.674;23.350;2023-05-22T00:55:26;94538.13;;;14.10;100.00
23164;BME280;31429;42.674;23.350;2023-05-22T00:56:26;94538.34;;;14.06;100.00
23164;BME280;31429;42.674;23.350;2023-05-22T00:57:29;94528.91;;;14.06;100.00
23164;BME280;31429;42.674;23.350;2023-05-22T00:58:30;94533.47;;;14.01;100.00
23164;BME280;31429;42.674;23.350;2023-05-22T00:59:31;94531.13;;;13.97;100.00
23164;BME280;31429;42.674;23.350;2023-05-22T01:00:32;94526.00;;;13.97;100.00
23164;BME280;31429;42.674;23.350;2023-05-22T01:01:33;94524.41;;;13.94;100.00
23164;BME280;31429;42.674;23.350;2023-05-22T01:02:36;94525.25;;;13.95;100.00
23164;BME280;31429;42.674;23.350;2023-05-22T01:03:38;94526.94;;;13.96;100.00
23164;BME280;31429;42.674;23.350;2023-05-22T01:04:45;94525.41;;;13.92;100.00
23164;BME280;31429;42.674;23.350;2023-05-22T01:05:47;94521.69;;;13.97;100.00
23164;BME280;31429;42.674;23.350;2023-05-22T01:06:48;94526.66;;;14.00;100.00
23164;BME280;31429;42.674;23.350;2023-05-22T01:07:49;94527.34;;;14.04;100.00
23164;BME280;31429;42.674;23.350;2023-05-22T01:08:49;94522.34;;;14.01;100.00
23164;BME280;31429;42.674;23.350;2023-05-22T01:09:50;94521.84;;;13.94;100.00
23164;BME280;31429;42.674;23.350;2023-05-22T01:11:03;94521.03;;;13.94;100.00
23164;BME280;31429;42.674;23.350;2023-05-22T01:12:12;94526.00;;;13.97;100.00
23164;BME280;31429;42.674;23.350;2023-05-22T01:13:25;94521.84;;;13.94;100.00
23164;BME280;31429;42.674;23.350;2023-05-22T01:14:33;94528.50;;;13.98;100.00
23164;BME280;31429;42.674;23.350;2023-05-22T01:15:40;94520.53;;;14.03;100.00
23164;BME280;31429;42.674;23.350;2023-05-22T01:16:47;94529.34;;;13.99;100.00
23164;BME280;31429;42.674;23.350;2023-05-22T01:17:56;94519.78;;;14.01;100.00
23164;BME280;31429;42.674;23.350;2023-05-22T01:19:04;94518.94;;;14.00;100.00
23164;BME280;31429;42.674;23.350;2023-05-22T01:20:14;94529.34;;;13.99;100.00
23164;BME280;31429;42.674;23.350;2023-05-22T01:21:20;94522.34;;;14.01;100.00
23164;BME280;31429;42.674;23.350;2023-05-22T01:22:37;94522.41;;;13.99;100.00
23164;BME280;31429;42.674;23.350;2023-05-22T01:24:12;94508.59;;;14.02;100.00
23164;BME280;31429;42.674;23.350;2023-05-22T01:25:35;94519.06;;;13.99;100.00
23164;BME280;31429;42.674;23.350;2023-05-22T01:26:58;94513.81;;;14.00;100.00
23164;BME280;31429;42.674;23.350;2023-05-22T01:28:22;94512.91;;;14.01;100.00
23164;BME280;31429;42.674;23.350;2023-05-22T01:29:33;94517.81;;;13.90;100.00
23164;BME280;31429;42.674;23.350;2023-05-22T01:30:49;94520.78;;;13.82;100.00
23164;BME280;31429;42.674;23.350;2023-05-22T01:31:53;94512.31;;;13.80;100.00
23164;BME280;31429;42.674;23.350;2023-05-22T01:32:55;94512.25;;;13.82;100.00
23164;BME280;31429;42.674;23.350;2023-05-22T01:33:59;94508.94;;;13.80;100.00
23164;BME280;31429;42.674;23.350;2023-05-22T01:35:05;94505.63;;;13.78;100.00
23164;BME280;31429;42.674;23.350;2023-05-22T01:36:08;94506.78;;;13.72;100.00
23164;BME280;31429;42.674;23.350;2023-05-22T01:37:11;94507.00;;;13.68;100.00
23164;BME280;31429;42.674;23.350;2023-05-22T01:38:13;94505.38;;;13.67;100.00
23164;BME280;31429;42.674;23.350;2023-05-22T01:39:16;94500.28;;;13.65;100.00
23164;BME280;31429;42.674;23.350;2023-05-22T01:40:17;94507.19;;;13.65;100.00
23164;BME280;31429;42.674;23.350;2023-05-22T01:41:19;94509.16;;;13.60;100.00
23164;BME280;31429;42.674;23.350;2023-05-22T01:42:20;94504.03;;;13.60;100.00
23164;BME280;31429;42.674;23.350;2023-05-22T01:43:21;94502.53;;;13.56;100.00
23164;BME280;31429;42.674;23.350;2023-05-22T01:44:22;94506.09;;;13.53;100.00
23164;BME280;31429;42.674;23.350;2023-05-22T01:45:23;94501.13;;;13.50;100.00
23164;BME280;31429;42.674;23.350;2023-05-22T01:46:26;94504.59;;;13.49;100.00
23164;BME280;31429;42.674;23.350;2023-05-22T01:47:26;94508.16;;;13.47;100.00
23164;BME280;31429;42.674;23.350;2023-05-22T01:48:27;94503.03;;;13.47;100.00
23164;BME280;31429;42.674;23.350;2023-05-22T01:49:28;94504.69;;;13.48;100.00
23164;BME280;31429;42.674;23.350;2023-05-22T01:50:29;94504.09;;;13.43;100.00
23164;BME280;31429;42.674;23.350;2023-05-22T01:51:38;94503.28;;;13.42;100.00
23164;BME280;31429;42.674;23.350;2023-05-22T01:52:52;94508.22;;;13.45;100.00
23164;BME280;31429;42.674;23.350;2023-05-22T01:53:58;94506.91;;;13.38;100.00
23164;BME280;31429;42.674;23.350;2023-05-22T01:55:05;94504.44;;;13.37;100.00
23164;BME280;31429;42.674;23.350;2023-05-22T01:56:11;94510.78;;;13.30;100.00
23164;BME280;31429;42.674;23.350;2023-05-22T01:57:17;94510.94;;;13.27;100.00
23164;BME280;31429;42.674;23.350;2023-05-22T01:58:26;94504.91;;;13.28;100.00
23164;BME280;31429;42.674;23.350;2023-05-22T01:59:33;94507.22;;;13.16;100.00
23164;BME280;31429;42.674;23.350;2023-05-22T02:00:38;94511.06;;;13.08;100.00
23164;BME280;31429;42.674;23.350;2023-05-22T02:01:42;94499.13;;;13.07;100.00
23164;BME280;31429;42.674;23.350;2023-05-22T02:02:46;94504.69;;;13.15;100.00
23164;BME280;31429;42.674;23.350;2023-05-22T02:03:48;94509.31;;;13.08;100.00
23164;BME280;31429;42.674;23.350;2023-05-22T02:04:58;94503.72;;;13.00;100.00
23164;BME280;31429;42.674;23.350;2023-05-22T02:06:03;94498.69;;;12.99;100.00
23164;BME280;31429;42.674;23.350;2023-05-22T02:07:05;94500.72;;;12.92;100.00
23164;BME280;31429;42.674;23.350;2023-05-22T02:08:06;94498.25;;;12.91;100.00
23164;BME280;31429;42.674;23.350;2023-05-22T02:09:09;94494.00;;;12.90;100.00
23164;BME280;31429;42.674;23.350;2023-05-22T02:10:10;94500.19;;;12.86;100.00
23164;BME280;31429;42.674;23.350;2023-05-22T02:11:12;94497.03;;;12.81;100.00
23164;BME280;31429;42.674;23.350;2023-05-22T02:12:14;94503.69;;;12.85;100.00
23164;BME280;31429;42.674;23.350;2023-05-22T02:13:15;94498.84;;;12.79;100.00
23164;BME280;31429;42.674;23.350;2023-05-22T02:14:17;94496.59;;;12.73;100.00
23164;BME280;31429;42.674;23.350;2023-05-22T02:15:18;94501.56;;;12.76;100.00
23164;BME280;31429;42.674;23.350;2023-05-22T02:16:19;94500.59;;;12.78;100.00
23164;BME280;31429;42.674;23.350;2023-05-22T02:17:22;94501.66;;;12.74;100.00
23164;BME280;31429;42.674;23.350;2023-05-22T02:18:25;94497.03;;;12.63;100.00
23164;BME280;31429;42.674;23.350;2023-05-22T02:19:28;94502.19;;;12.63;100.00
23164;BME280;31429;42.674;23.350;2023-05-22T02:20:29;94503.41;;;12.56;100.00
23164;BME280;31429;42.674;23.350;2023-05-22T02:21:30;94491.09;;;12.63;100.00
23164;BME280;31429;42.674;23.350;2023-05-22T02:22:30;94498.03;;;12.61;100.00
23164;BME280;31429;42.674;23.350;2023-05-22T02:23:31;94500.91;;;12.55;100.00
23164;BME280;31429;42.674;23.350;2023-05-22T02:24:33;94509.28;;;12.58;100.00
23164;BME280;31429;42.674;23.350;2023-05-22T02:25:35;94492.22;;;12.57;100.00
23164;BME280;31429;42.674;23.350;2023-05-22T02:26:36;94491.88;;;12.48;100.00
23164;BME280;31429;42.674;23.350;2023-05-22T02:27:37;94499.69;;;12.45;100.00
23164;BME280;31429;42.674;23.350;2023-05-22T02:28:38;94498.88;;;12.44;100.00
23164;BME280;31429;42.674;23.350;2023-05-22T02:29:39;94498.13;;;12.42;100.00
23164;BME280;31429;42.674;23.350;2023-05-22T02:30:39;94495.72;;;12.39;100.00
23164;BME280;31429;42.674;23.350;2023-05-22T02:31:40;94491.63;;;12.35;100.00
23164;BME280;31429;42.674;23.350;2023-05-22T02:32:42;94501.38;;;12.29;100.00
23164;BME280;31429;42.674;23.350;2023-05-22T02:33:43;94499.69;;;12.28;100.00
23164;BME280;31429;42.674;23.350;2023-05-22T02:34:44;94494.78;;;12.23;100.00
23164;BME280;31429;42.674;23.350;2023-05-22T02:35:44;94485.81;;;12.15;100.00
23164;BME280;31429;42.674;23.350;2023-05-22T02:36:45;94491.91;;;12.12;100.00
23164;BME280;31429;42.674;23.350;2023-05-22T02:37:47;94495.25;;;12.14;100.00
23164;BME280;31429;42.674;23.350;2023-05-22T02:38:47;94495.09;;;12.17;100.00
23164;BME280;31429;42.674;23.350;2023-05-22T02:39:48;94495.16;;;12.16;100.00
23164;BME280;31429;42.674;23.350;2023-05-22T02:40:48;94491.59;;;12.18;100.00
23164;BME280;31429;42.674;23.350;2023-05-22T02:41:49;94491.59;;;12.18;100.00
23164;BME280;31429;42.674;23.350;2023-05-22T02:42:50;94490.41;;;12.25;100.00
23164;BME280;31429;42.674;23.350;2023-05-22T02:43:50;94485.81;;;12.32;100.00
23164;BME280;31429;42.674;23.350;2023-05-22T02:44:51;94492.84;;;12.28;100.00
23164;BME280;31429;42.674;23.350;2023-05-22T02:45:52;94493.88;;;12.24;100.00
23164;BME280;31429;42.674;23.350;2023-05-22T02:46:53;94488.91;;;12.21;100.00
23164;BME280;31429;42.674;23.350;2023-05-22T02:47:55;94487.31;;;12.19;100.00
23164;BME280;31429;42.674;23.350;2023-05-22T02:48:56;94489.28;;;12.14;100.00
23164;BME280;31429;42.674;23.350;2023-05-22T02:49:56;94485.97;;;12.12;100.00
23164;BME280;31429;42.674;23.350;2023-05-22T02:50:57;94484.44;;;12.07;100.00
23164;BME280;31429;42.674;23.350;2023-05-22T02:51:58;94487.97;;;12.05;100.00
23164;BME280;31429;42.674;23.350;2023-05-22T02:52:58;94485.41;;;12.05;100.00
23164;BME280;31429;42.674;23.350;2023-05-22T02:53:59;94489.66;;;12.06;100.00
23164;BME280;31429;42.674;23.350;2023-05-22T02:55:00;94488.03;;;12.03;100.00
23164;BME280;31429;42.674;23.350;2023-05-22T02:56:00;94491.59;;;12.01;100.00
23164;BME280;31429;42.674;23.350;2023-05-22T02:57:02;94482.25;;;12.00;100.00
23164;BME280;31429;42.674;23.350;2023-05-22T02:58:03;94478.03;;;11.99;100.00
23164;BME280;31429;42.674;23.350;2023-05-22T02:59:04;94489.00;;;12.01;100.00
23164;BME280;31429;42.674;23.350;2023-05-22T03:00:06;94483.22;;;11.97;100.00
23164;BME280;31429;42.674;23.350;2023-05-22T03:01:06;94479.16;;;11.93;100.00
23164;BME280;31429;42.674;23.350;2023-05-22T03:02:08;94485.94;;;11.94;100.00
23164;BME280;31429;42.674;23.350;2023-05-22T03:03:10;94485.84;;;11.96;100.00
23164;BME280;31429;42.674;23.350;2023-05-22T03:04:10;94485.09;;;11.94;100.00
23164;BME280;31429;42.674;23.350;2023-05-22T03:05:13;94479.59;;;12.01;100.00
23164;BME280;31429;42.674;23.350;2023-05-22T03:06:16;94485.72;;;11.99;100.00
23164;BME280;31429;42.674;23.350;2023-05-22T03:07:17;94485.94;;;11.94;100.00
23164;BME280;31429;42.674;23.350;2023-05-22T03:08:19;94482.75;;;11.89;100.00
23164;BME280;31429;42.674;23.350;2023-05-22T03:09:20;94480.31;;;11.86;100.00
23164;BME280;31429;42.674;23.350;2023-05-22T03:10:21;94488.63;;;11.91;100.00
23164;BME280;31429;42.674;23.350;2023-05-22T03:11:21;94483.38;;;11.94;100.00
23164;BME280;31429;42.674;23.350;2023-05-22T03:12:22;94491.88;;;11.95;100.00
23164;BME280;31429;42.674;23.350;2023-05-22T03:13:23;94487.72;;;11.92;100.00
23164;BME280;31429;42.674;23.350;2023-05-22T03:14:24;94485.84;;;11.96;100.00
23164;BME280;31429;42.674;23.350;2023-05-22T03:15:25;94488.50;;;11.94;100.00
23164;BME280;31429;42.674;23.350;2023-05-22T03:16:25;94490.28;;;11.92;100.00
23164;BME280;31429;42.674;23.350;2023-05-22T03:17:26;94489.47;;;11.92;100.00
23164;BME280;31429;42.674;23.350;2023-05-22T03:18:28;94486.75;;;11.95;100.00
23164;BME280;31429;42.674;23.350;2023-05-22T03:19:28;94486.69;;;11.96;100.00
23164;BME280;31429;42.674;23.350;2023-05-22T03:20:29;94485.84;;;11.96;100.00
23164;BME280;31429;42.674;23.350;2023-05-22T03:21:30;94481.56;;;11.96;100.00
23164;BME280;31429;42.674;23.350;2023-05-22T03:22:31;94489.94;;;12.00;100.00
23164;BME280;31429;42.674;23.350;2023-05-22T03:23:31;94491.06;;;11.94;100.00
23164;BME280;31429;42.674;23.350;2023-05-22T03:24:32;94489.94;;;12.00;100.00
23164;BME280;31429;42.674;23.350;2023-05-22T03:25:33;94484.03;;;11.98;100.00
23164;BME280;31429;42.674;23.350;2023-05-22T03:26:33;94484.03;;;11.98;100.00
23164;BME280;31429;42.674;23.350;2023-05-22T03:27:35;94491.81;;;11.96;100.00
23164;BME280;31429;42.674;23.350;2023-05-22T03:28:35;94490.09;;;11.97;100.00
23164;BME280;31429;42.674;23.350;2023-05-22T03:29:36;94487.56;;;11.95;100.00
23164;BME280;31429;42.674;23.350;2023-05-22T03:30:37;94487.44;;;11.98;100.00
23164;BME280;31429;42.674;23.350;2023-05-22T03:31:38;94492.56;;;11.98;100.00
23164;BME280;31429;42.674;23.350;2023-05-22T03:32:38;94490.59;;;12.03;100.00
23164;BME280;31429;42.674;23.350;2023-05-22T03:33:40;94481.19;;;12.04;100.00
23164;BME280;31429;42.674;23.350;2023-05-22T03:34:41;94485.41;;;12.05;100.00
23164;BME280;31429;42.674;23.350;2023-05-22T03:35:42;94480.16;;;12.08;100.00
23164;BME280;31429;42.674;23.350;2023-05-22T03:36:43;94487.69;;;12.11;100.00
23164;BME280;31429;42.674;23.350;2023-05-22T03:37:45;94487.69;;;12.11;100.00
23164;BME280;31429;42.674;23.350;2023-05-22T03:38:46;94484.84;;;12.17;100.00
23164;BME280;31429;42.674;23.350;2023-05-22T03:39:46;94483.78;;;12.21;100.00
23164;BME280;31429;42.674;23.350;2023-05-22T03:40:47;94487.16;;;12.22;100.00
23164;BME280;31429;42.674;23.350;2023-05-22T03:41:48;94485.34;;;12.24;100.00
23164;BME280;31429;42.674;23.350;2023-05-22T03:42:48;94492.16;;;12.25;100.00
23164;BME280;31429;42.674;23.350;2023-05-22T03:43:49;94487.47;;;12.33;100.00
23164;BME280;31429;42.674;23.350;2023-05-22T03:44:50;94486.34;;;12.38;100.00
23164;BME280;31429;42.674;23.350;2023-05-22T03:45:50;94489.88;;;12.36;100.00
23164;BME280;31429;42.674;23.350;2023-05-22T03:46:51;94483.19;;;12.33;100.00
23164;BME280;31429;42.674;23.350;2023-05-22T03:47:51;94487.41;;;12.34;100.00
23164;BME280;31429;42.674;23.350;2023-05-22T03:48:53;94483.88;;;12.37;100.00
23164;BME280;31429;42.674;23.350;2023-05-22T03:49:54;94489.75;;;12.39;100.00
23164;BME280;31429;42.674;23.350;2023-05-22T03:50:55;94492.16;;;12.42;100.00
23164;BME280;31429;42.674;23.350;2023-05-22T03:51:55;94487.34;;;12.53;100.00
23164;BME280;31429;42.674;23.350;2023-05-22T03:52:56;94484.69;;;12.54;100.00
23164;BME280;31429;42.674;23.350;2023-05-22T03:53:57;94486.44;;;12.54;100.00
23164;BME280;31429;42.674;23.350;2023-05-22T03:54:57;94489.97;;;12.51;100.00
23164;BME280;31429;42.674;23.350;2023-05-22T03:55:58;94491.78;;;12.49;100.00
23164;BME280;31429;42.674;23.350;2023-05-22T03:56:59;94493.66;;;12.46;100.00
23164;BME280;31429;42.674;23.350;2023-05-22T03:58:00;94491.19;;;12.44;100.00
23164;BME280;31429;42.674;23.350;2023-05-22T03:59:00;94489.34;;;12.46;100.00
23164;BME280;31429;42.674;23.350;2023-05-22T04:00:01;94484.16;;;12.48;100.00
23164;BME280;31429;42.674;23.350;2023-05-22T04:01:08;94495.25;;;12.48;100.00
23164;BME280;31429;42.674;23.350;2023-05-22T04:02:10;94496.16;;;12.47;100.00
23164;BME280;31429;42.674;23.350;2023-05-22T04:03:12;94495.31;;;12.47;100.00
23164;BME280;31429;42.674;23.350;2023-05-22T04:04:14;94488.63;;;12.44;100.00
23164;BME280;31429;42.674;23.350;2023-05-22T04:05:16;94493.66;;;12.46;100.00
23164;BME280;31429;42.674;23.350;2023-05-22T04:06:16;94486.50;;;12.52;100.00
23164;BME280;31429;42.674;23.350;2023-05-22T04:07:21;94495.25;;;12.65;100.00
23164;BME280;31429;42.674;23.350;2023-05-22T04:08:22;94495.84;;;12.71;100.00
23164;BME280;31429;42.674;23.350;2023-05-22T04:09:25;94497.28;;;12.76;100.00
23164;BME280;31429;42.674;23.350;2023-05-22T04:10:26;94501.19;;;12.83;100.00
23164;BME280;31429;42.674;23.350;2023-05-22T04:11:27;94498.75;;;12.80;100.00
23164;BME280;31429;42.674;23.350;2023-05-22T04:12:29;94496.97;;;12.82;100.00
23164;BME280;31429;42.674;23.350;2023-05-22T04:13:30;94495.16;;;12.84;100.00
23164;BME280;31429;42.674;23.350;2023-05-22T04:14:31;94500.97;;;12.88;100.00
23164;BME280;31429;42.674;23.350;2023-05-22T04:15:32;94494.16;;;12.87;100.00
23164;BME280;31429;42.674;23.350;2023-05-22T04:16:33;94498.63;;;12.83;100.00
23164;BME280;31429;42.674;23.350;2023-05-22T04:17:37;94496.81;;;12.85;100.00
23164;BME280;31429;42.674;23.350;2023-05-22T04:18:38;94498.31;;;12.89;100.00
23164;BME280;31429;42.674;23.350;2023-05-22T04:19:40;94499.34;;;13.02;100.00
23164;BME280;31429;42.674;23.350;2023-05-22T04:20:41;94503.81;;;13.16;100.00
23164;BME280;31429;42.674;23.350;2023-05-22T04:21:44;94501.41;;;13.13;100.00
23164;BME280;31429;42.674;23.350;2023-05-22T04:22:45;94507.53;;;13.10;100.00
23164;BME280;31429;42.674;23.350;2023-05-22T04:23:48;94500.50;;;13.14;100.00
23164;BME280;31429;42.674;23.350;2023-05-22T04:24:48;94491.03;;;13.14;100.00
23164;BME280;31429;42.674;23.350;2023-05-22T04:25:49;94497.69;;;13.18;100.00
23164;BME280;31429;42.674;23.350;2023-05-22T04:26:50;94497.00;;;13.15;100.00
23164;BME280;31429;42.674;23.350;2023-05-22T04:27:51;94497.28;;;13.26;100.00
23164;BME280;31429;42.674;23.350;2023-05-22T04:28:51;94503.50;;;13.38;100.00
23164;BME280;31429;42.674;23.350;2023-05-22T04:29:52;94507.59;;;13.42;100.00
23164;BME280;31429;42.674;23.350;2023-05-22T04:30:53;94500.19;;;13.51;100.00
23164;BME280;31429;42.674;23.350;2023-05-22T04:31:53;94500.72;;;13.58;100.00
23164;BME280;31429;42.674;23.350;2023-05-22T04:32:57;94496.47;;;13.57;100.00
23164;BME280;31429;42.674;23.350;2023-05-22T04:33:59;94501.97;;;13.66;100.00
23164;BME280;31429;42.674;23.350;2023-05-22T04:35:01;94505.09;;;13.71;100.00
23164;BME280;31429;42.674;23.350;2023-05-22T04:36:03;94507.69;;;13.71;100.00
23164;BME280;31429;42.674;23.350;2023-05-22T04:37:04;94502.16;;;13.79;100.00
23164;BME280;31429;42.674;23.350;2023-05-22T04:38:05;94507.69;;;13.87;100.00
23164;BME280;31429;42.674;23.350;2023-05-22T04:39:06;94506.44;;;13.94;100.00
23164;BME280;31429;42.674;23.350;2023-05-22T04:40:08;94510.66;;;13.95;100.00
23164;BME280;31429;42.674;23.350;2023-05-22T04:41:09;94510.56;;;13.97;100.00
23164;BME280;31429;42.674;23.350;2023-05-22T04:42:11;94513.56;;;14.05;100.00
23164;BME280;31429;42.674;23.350;2023-05-22T04:43:13;94517.34;;;14.13;100.00
23164;BME280;31429;42.674;23.350;2023-05-22T04:44:14;94515.38;;;14.18;100.00
23164;BME280;31429;42.674;23.350;2023-05-22T04:45:14;94514.94;;;14.26;100.00
23164;BME280;31429;42.674;23.350;2023-05-22T04:46:15;94516.34;;;14.31;100.00
23164;BME280;31429;42.674;23.350;2023-05-22T04:47:16;94516.78;;;14.39;100.00
23164;BME280;31429;42.674;23.350;2023-05-22T04:48:17;94520.75;;;14.45;100.00
23164;BME280;31429;42.674;23.350;2023-05-22T04:49:18;94519.22;;;14.57;100.00
23164;BME280;31429;42.674;23.350;2023-05-22T04:50:21;94516.47;;;14.60;100.00
23164;BME280;31429;42.674;23.350;2023-05-22T04:51:23;94508.31;;;14.67;100.00
23164;BME280;31429;42.674;23.350;2023-05-22T04:52:24;94509.72;;;14.73;100.00
23164;BME280;31429;42.674;23.350;2023-05-22T04:53:24;94520.56;;;14.78;100.00
23164;BME280;31429;42.674;23.350;2023-05-22T04:54:26;94519.63;;;14.79;100.00
23164;BME280;31429;42.674;23.350;2023-05-22T04:55:27;94513.25;;;14.86;100.00
23164;BME280;31429;42.674;23.350;2023-05-22T04:56:27;94518.88;;;14.92;100.00
23164;BME280;31429;42.674;23.350;2023-05-22T04:57:29;94515.47;;;14.92;100.00
23164;BME280;31429;42.674;23.350;2023-05-22T04:58:30;94524.47;;;14.99;100.00
23164;BME280;31429;42.674;23.350;2023-05-22T04:59:31;94521.47;;;15.07;100.00
23164;BME280;31429;42.674;23.350;2023-05-22T05:00:32;94517.41;;;15.17;100.00
23164;BME280;31429;42.674;23.350;2023-05-22T05:01:33;94521.47;;;15.21;100.00
23164;BME280;31429;42.674;23.350;2023-05-22T05:02:34;94518.97;;;15.19;100.00
23164;BME280;31429;42.674;23.350;2023-05-22T05:03:35;94526.44;;;15.24;100.00
23164;BME280;31429;42.674;23.350;2023-05-22T05:04:36;94518.91;;;15.35;100.00
23164;BME280;31429;42.674;23.350;2023-05-22T05:05:38;94527.34;;;15.37;100.00
23164;BME280;31429;42.674;23.350;2023-05-22T05:06:38;94531.97;;;15.46;100.00
23164;BME280;31429;42.674;23.350;2023-05-22T05:07:39;94525.72;;;15.50;100.00
23164;BME280;31429;42.674;23.350;2023-05-22T05:08:40;94526.84;;;15.60;100.00
23164;BME280;31429;42.674;23.350;2023-05-22T05:09:43;94519.53;;;15.67;100.00
23164;BME280;31429;42.674;23.350;2023-05-22T05:10:44;94534.00;;;15.69;100.00
23164;BME280;31429;42.674;23.350;2023-05-22T05:11:44;94528.88;;;15.69;100.00
23164;BME280;31429;42.674;23.350;2023-05-22T05:12:45;94530.84;;;15.78;100.00
23164;BME280;31429;42.674;23.350;2023-05-22T05:13:46;94537.31;;;15.85;100.00
23164;BME280;31429;42.674;23.350;2023-05-22T05:14:46;94535.44;;;15.87;100.00
23164;BME280;31429;42.674;23.350;2023-05-22T05:15:47;94543.72;;;15.92;100.00
23164;BME280;31429;42.674;23.350;2023-05-22T05:16:48;94539.13;;;15.97;100.00
23164;BME280;31429;42.674;23.350;2023-05-22T05:17:50;94540.56;;;16.01;100.00
23164;BME280;31429;42.674;23.350;2023-05-22T05:18:51;94546.19;;;16.08;100.00
23164;BME280;31429;42.674;23.350;2023-05-22T05:19:52;94544.69;;;16.18;100.00
23164;BME280;31429;42.674;23.350;2023-05-22T05:20:54;94546.03;;;16.24;100.00